createdAt,value
2018-05-14T00:00:33.290Z,18.30
2018-05-14T00:03:02.096Z,18.30
2018-05-14T00:05:29.774Z,18.30
2018-05-14T00:07:58.477Z,18.20
2018-05-14T00:10:26.853Z,18.20
2018-05-14T00:12:54.495Z,18.20
2018-05-14T00:15:22.185Z,18.20
2018-05-14T00:17:50.442Z,18.10
2018-05-14T00:20:18.082Z,18.10
2018-05-14T00:22:45.728Z,18.10
2018-05-14T00:25:14.096Z,18.00
2018-05-14T00:27:42.497Z,18.00
2018-05-14T00:30:10.996Z,17.90
2018-05-14T00:32:39.209Z,17.90
2018-05-14T00:35:06.869Z,17.90
2018-05-14T00:37:34.513Z,17.90
2018-05-14T00:40:02.093Z,17.90
2018-05-14T00:42:29.708Z,17.80
2018-05-14T00:44:57.364Z,17.80
2018-05-14T00:47:25.017Z,17.80
2018-05-14T00:49:52.721Z,17.70
2018-05-14T00:52:20.351Z,17.70
2018-05-14T00:54:59.798Z,17.70
2018-05-14T00:57:28.104Z,17.60
2018-05-14T00:59:55.780Z,17.60
2018-05-14T01:02:23.385Z,17.60
2018-05-14T01:04:50.960Z,17.60
2018-05-14T01:07:18.639Z,17.50
2018-05-14T01:09:46.258Z,17.50
2018-05-14T01:12:14.178Z,17.50
2018-05-14T01:14:41.800Z,17.50
2018-05-14T01:17:09.393Z,17.40
2018-05-14T01:19:37.022Z,17.40
2018-05-14T01:22:04.626Z,17.40
2018-05-14T01:24:33.743Z,17.30
2018-05-14T01:27:02.146Z,17.30
2018-05-14T01:29:29.790Z,17.30
2018-05-14T01:31:57.405Z,17.30
2018-05-14T01:34:25.019Z,17.30
2018-05-14T01:36:53.187Z,17.20
2018-05-14T01:39:21.391Z,17.20
2018-05-14T01:41:49.112Z,17.20
2018-05-14T01:44:18.759Z,17.10
2018-05-14T01:46:46.653Z,17.10
2018-05-14T01:49:15.059Z,17.10
2018-05-14T01:51:43.482Z,17.10
2018-05-14T01:54:11.092Z,17.00
2018-05-14T01:56:39.510Z,17.00
2018-05-14T01:59:07.109Z,17.00
2018-05-14T02:01:34.749Z,17.00
2018-05-14T02:04:02.369Z,17.00
2018-05-14T02:06:29.987Z,17.00
2018-05-14T02:08:57.605Z,16.90
2018-05-14T02:11:25.235Z,16.90
2018-05-14T02:13:53.656Z,16.80
2018-05-14T02:16:21.306Z,16.80
2018-05-14T02:18:49.504Z,16.80
2018-05-14T02:21:17.084Z,16.80
2018-05-14T02:23:44.745Z,16.80
2018-05-14T02:26:13.127Z,16.70
2018-05-14T02:28:42.273Z,16.60
2018-05-14T02:31:09.958Z,16.70
2018-05-14T02:33:37.562Z,16.70
2018-05-14T02:36:05.944Z,16.70
2018-05-14T02:38:34.372Z,16.60
2018-05-14T02:41:01.993Z,16.60
2018-05-14T02:43:29.632Z,16.60
2018-05-14T02:45:58.020Z,16.50
2018-05-14T02:48:26.367Z,16.50
2018-05-14T02:50:54.006Z,16.40
2018-05-14T02:53:21.771Z,16.50
2018-05-14T02:55:49.383Z,16.40
2018-05-14T02:58:17.808Z,16.40
2018-05-14T03:00:45.425Z,16.40
2018-05-14T03:03:13.777Z,16.30
2018-05-14T03:05:42.900Z,16.30
2018-05-14T03:08:11.277Z,16.20
2018-05-14T03:10:39.655Z,16.20
2018-05-14T03:13:08.043Z,16.20
2018-05-14T03:15:35.667Z,16.20
2018-05-14T03:18:03.284Z,16.20
2018-05-14T03:20:30.909Z,16.20
2018-05-14T03:22:59.643Z,16.10
2018-05-14T03:25:27.308Z,16.10
2018-05-14T03:27:54.918Z,16.10
2018-05-14T03:30:23.274Z,16.10
2018-05-14T03:32:52.457Z,16.10
2018-05-14T03:35:21.590Z,16.10
2018-05-14T03:37:50.011Z,16.10
2018-05-14T03:40:17.673Z,16.10
2018-05-14T03:42:45.313Z,16.00
2018-05-14T03:45:12.899Z,16.10
2018-05-14T03:47:40.530Z,16.00
2018-05-14T03:50:08.149Z,16.00
2018-05-14T03:52:36.562Z,16.00
2018-05-14T03:55:04.171Z,16.00
2018-05-14T03:57:31.781Z,16.00
2018-05-14T04:00:11.280Z,16.00
2018-05-14T04:02:50.775Z,16.00
2018-05-14T04:05:18.376Z,16.00
2018-05-14T04:07:45.966Z,16.10
2018-05-14T04:10:14.359Z,16.10
2018-05-14T04:12:42.811Z,16.10
2018-05-14T04:15:10.390Z,16.10
2018-05-14T04:17:39.449Z,16.20
2018-05-14T04:20:07.080Z,16.20
2018-05-14T04:22:35.303Z,16.20
2018-05-14T04:25:03.662Z,16.30
2018-05-14T04:27:31.299Z,16.30
2018-05-14T04:29:58.918Z,16.40
2018-05-14T04:32:26.499Z,16.40
2018-05-14T04:34:54.174Z,16.50
2018-05-14T04:37:21.765Z,16.50
2018-05-14T04:39:49.394Z,16.50
2018-05-14T04:42:17.120Z,16.60
2018-05-14T04:44:45.464Z,16.70
2018-05-14T04:47:13.559Z,16.70
2018-05-14T04:49:41.939Z,16.80
2018-05-14T04:52:10.283Z,16.80
2018-05-14T04:54:37.894Z,16.80
2018-05-14T04:57:05.511Z,16.90
2018-05-14T04:59:33.090Z,16.90
2018-05-14T05:02:01.474Z,17.10
2018-05-14T05:04:29.968Z,17.10
2018-05-14T05:06:57.580Z,17.10
2018-05-14T05:09:25.208Z,17.20
2018-05-14T05:11:52.825Z,17.30
2018-05-14T05:14:23.279Z,17.40
2018-05-14T05:16:50.869Z,17.40
2018-05-14T05:19:18.504Z,17.50
2018-05-14T05:21:46.084Z,17.60
2018-05-14T05:24:13.778Z,17.70
2018-05-14T05:26:41.843Z,17.80
2018-05-14T05:29:11.134Z,17.90
2018-05-14T05:31:39.559Z,18.00
2018-05-14T05:34:07.942Z,18.00
2018-05-14T05:36:36.200Z,18.00
2018-05-14T05:39:04.730Z,18.20
2018-05-14T05:41:32.360Z,18.20
2018-05-14T05:43:59.966Z,18.30
2018-05-14T05:46:27.636Z,18.40
2018-05-14T05:48:55.219Z,18.50
2018-05-14T05:51:23.564Z,18.50
2018-05-14T05:53:51.966Z,18.50
2018-05-14T05:56:19.561Z,18.50
2018-05-14T05:58:47.195Z,18.60
2018-05-14T06:01:15.613Z,18.70
2018-05-14T06:03:43.263Z,18.70
2018-05-14T06:06:11.082Z,18.80
2018-05-14T06:08:39.545Z,19.00
2018-05-14T06:11:07.172Z,19.00
2018-05-14T06:13:34.853Z,19.10
2018-05-14T06:16:03.280Z,19.30
2018-05-14T06:18:31.665Z,19.40
2018-05-14T06:21:00.790Z,19.50
2018-05-14T06:23:28.366Z,19.50
2018-05-14T06:25:55.949Z,19.60
2018-05-14T06:28:26.481Z,19.90
2018-05-14T06:30:54.669Z,19.90
2018-05-14T06:33:23.065Z,20.20
2018-05-14T06:35:51.510Z,20.30
2018-05-14T06:38:20.750Z,20.40
2018-05-14T06:40:49.856Z,20.50
2018-05-14T06:43:17.500Z,20.40
2018-05-14T06:45:45.848Z,20.70
2018-05-14T06:48:13.456Z,20.60
2018-05-14T06:50:41.107Z,20.90
2018-05-14T06:53:08.711Z,20.90
2018-05-14T06:55:37.044Z,21.00
2018-05-14T06:58:04.672Z,21.10
2018-05-14T07:00:32.637Z,21.30
2018-05-14T07:03:00.300Z,21.40
2018-05-14T07:05:29.480Z,21.50
2018-05-14T07:07:57.111Z,21.50
2018-05-14T07:10:24.777Z,21.60
2018-05-14T07:12:52.367Z,21.70
2018-05-14T07:15:19.953Z,21.70
2018-05-14T07:17:48.353Z,22.00
2018-05-14T07:20:16.331Z,21.90
2018-05-14T07:22:43.941Z,22.00
2018-05-14T07:25:11.575Z,21.90
2018-05-14T07:27:39.964Z,21.90
2018-05-14T07:30:07.680Z,22.00
2018-05-14T07:32:35.277Z,22.00
2018-05-14T07:35:02.905Z,22.20
2018-05-14T07:37:30.586Z,22.40
2018-05-14T07:39:58.256Z,22.60
2018-05-14T07:42:25.877Z,22.70
2018-05-14T07:44:53.455Z,22.80
2018-05-14T07:47:21.091Z,22.90
2018-05-14T07:49:49.526Z,22.90
2018-05-14T07:52:17.155Z,22.90
2018-05-14T07:54:44.759Z,23.00
2018-05-14T07:57:12.776Z,23.10
2018-05-14T07:59:40.439Z,23.20
2018-05-14T08:02:08.134Z,23.20
2018-05-14T08:04:36.572Z,23.30
2018-05-14T08:07:04.248Z,23.20
2018-05-14T08:09:31.843Z,23.20
2018-05-14T08:11:59.427Z,23.30
2018-05-14T08:14:27.788Z,23.50
2018-05-14T08:16:55.416Z,23.40
2018-05-14T08:19:23.056Z,23.40
2018-05-14T08:21:50.743Z,23.70
2018-05-14T08:24:18.640Z,23.90
2018-05-14T08:26:47.046Z,23.90
2018-05-14T08:29:15.402Z,23.90
2018-05-14T08:31:43.036Z,23.90
2018-05-14T08:34:10.751Z,23.80
2018-05-14T08:36:39.141Z,23.90
2018-05-14T08:39:06.748Z,23.90
2018-05-14T08:41:34.454Z,24.00
2018-05-14T08:44:02.075Z,24.10
2018-05-14T08:46:29.731Z,24.30
2018-05-14T08:48:57.376Z,24.50
2018-05-14T08:51:24.955Z,24.40
2018-05-14T08:53:52.569Z,24.50
2018-05-14T08:56:20.248Z,24.60
2018-05-14T08:58:47.833Z,24.50
2018-05-14T09:01:15.548Z,24.50
2018-05-14T09:03:43.351Z,24.50
2018-05-14T09:06:11.072Z,24.40
2018-05-14T09:08:38.828Z,24.40
2018-05-14T09:11:07.116Z,24.30
2018-05-14T09:13:34.835Z,24.40
2018-05-14T09:16:02.849Z,24.60
2018-05-14T09:18:30.555Z,24.70
2018-05-14T09:20:58.173Z,24.80
2018-05-14T09:23:25.876Z,24.70
2018-05-14T09:25:55.172Z,24.80
2018-05-14T09:28:22.852Z,24.80
2018-05-14T09:30:50.529Z,24.60
2018-05-14T09:33:18.904Z,24.90
2018-05-14T09:35:47.255Z,24.70
2018-05-14T09:38:14.889Z,24.60
2018-05-14T09:40:42.478Z,24.40
2018-05-14T09:43:10.340Z,24.30
2018-05-14T09:45:38.110Z,24.60
2018-05-14T09:48:05.847Z,24.60
2018-05-14T09:50:33.431Z,24.60
2018-05-14T09:53:01.893Z,24.70
2018-05-14T09:55:29.473Z,24.70
2018-05-14T09:57:57.855Z,24.50
2018-05-14T10:00:25.569Z,24.50
2018-05-14T10:02:53.192Z,24.60
2018-05-14T10:05:22.310Z,24.40
2018-05-14T10:07:49.937Z,24.40
2018-05-14T10:10:18.401Z,24.40
2018-05-14T10:12:46.042Z,24.40
2018-05-14T10:15:13.728Z,24.40
2018-05-14T10:17:41.437Z,24.40
2018-05-14T10:20:09.024Z,24.60
2018-05-14T10:22:36.633Z,24.60
2018-05-14T10:25:05.017Z,24.60
2018-05-14T10:27:33.392Z,24.70
2018-05-14T10:30:01.809Z,24.70
2018-05-14T10:32:29.477Z,24.60
2018-05-14T10:34:57.131Z,24.70
2018-05-14T10:37:24.794Z,24.70
2018-05-14T10:39:52.489Z,24.60
2018-05-14T10:42:21.249Z,24.40
2018-05-14T10:44:49.734Z,24.40
2018-05-14T10:47:17.363Z,24.40
2018-05-14T10:49:45.013Z,24.40
2018-05-14T10:52:12.642Z,24.30
2018-05-14T10:54:40.248Z,24.30
2018-05-14T10:57:09.235Z,24.30
2018-05-14T10:59:37.065Z,24.30
2018-05-14T11:02:05.515Z,24.30
2018-05-14T11:04:33.140Z,24.30
2018-05-14T11:07:00.774Z,24.30
2018-05-14T11:09:29.213Z,24.20
2018-05-14T11:11:56.842Z,24.10
2018-05-14T11:14:24.467Z,24.20
2018-05-14T11:16:52.144Z,24.20
2018-05-14T11:19:20.604Z,24.40
2018-05-14T11:21:48.196Z,24.30
2018-05-14T11:24:15.853Z,24.40
2018-05-14T11:26:43.653Z,24.40
2018-05-14T11:29:11.333Z,24.40
2018-05-14T11:31:39.143Z,24.30
2018-05-14T11:34:07.605Z,24.20
2018-05-14T11:36:35.955Z,24.10
2018-05-14T11:39:03.870Z,24.00
2018-05-14T11:41:31.477Z,24.10
2018-05-14T11:43:59.129Z,24.10
2018-05-14T11:46:26.790Z,24.20
2018-05-14T11:48:54.441Z,24.20
2018-05-14T11:51:22.149Z,24.30
2018-05-14T11:53:49.768Z,24.30
2018-05-14T11:56:17.492Z,24.30
2018-05-14T11:58:45.295Z,24.60
2018-05-14T12:01:12.929Z,24.60
2018-05-14T12:03:40.540Z,24.50
2018-05-14T12:06:08.282Z,24.50
2018-05-14T12:08:35.900Z,24.60
2018-05-14T12:11:04.282Z,24.90
2018-05-14T12:13:32.082Z,24.90
2018-05-14T12:15:59.781Z,25.70
2018-05-14T12:18:27.402Z,26.40
2018-05-14T12:20:54.997Z,27.30
2018-05-14T12:23:22.698Z,28.40
2018-05-14T12:25:50.287Z,29.40
2018-05-14T12:28:18.021Z,30.30
2018-05-14T12:30:45.740Z,31.10
2018-05-14T12:33:13.607Z,31.20
2018-05-14T12:35:41.591Z,31.90
2018-05-14T12:38:10.129Z,33.00
2018-05-14T12:40:37.836Z,33.00
2018-05-14T12:43:06.337Z,33.50
2018-05-14T12:45:34.878Z,33.40
2018-05-14T12:48:03.325Z,33.20
2018-05-14T12:50:31.081Z,33.20
2018-05-14T12:52:58.693Z,33.60
2018-05-14T12:55:27.071Z,34.80
2018-05-14T12:57:54.684Z,34.80
2018-05-14T13:00:22.339Z,35.00
2018-05-14T13:02:49.915Z,34.30
2018-05-14T13:05:17.795Z,34.90
2018-05-14T13:07:45.501Z,35.00
2018-05-14T13:10:13.840Z,36.90
2018-05-14T13:12:41.485Z,36.80
2018-05-14T13:15:09.398Z,37.20
2018-05-14T13:17:37.803Z,37.40
2018-05-14T13:20:05.485Z,37.40
2018-05-14T13:22:33.103Z,37.60
2018-05-14T13:25:01.534Z,38.10
2018-05-14T13:27:29.200Z,38.10
2018-05-14T13:29:56.793Z,38.90
2018-05-14T13:32:24.443Z,38.00
2018-05-14T13:34:52.062Z,38.50
2018-05-14T13:37:19.728Z,39.00
2018-05-14T13:39:47.311Z,39.40
2018-05-14T13:42:15.013Z,38.70
2018-05-14T13:44:42.679Z,38.50
2018-05-14T13:47:10.274Z,37.70
2018-05-14T13:49:37.864Z,37.40
2018-05-14T13:52:05.537Z,38.00
2018-05-14T13:54:33.115Z,38.60
2018-05-14T13:57:01.593Z,38.10
2018-05-14T13:59:29.976Z,38.60
2018-05-14T14:01:58.202Z,38.50
2018-05-14T14:04:25.962Z,39.30
2018-05-14T14:06:53.581Z,39.40
2018-05-14T14:09:21.190Z,38.60
2018-05-14T14:11:48.816Z,38.10
2018-05-14T14:14:16.446Z,37.80
2018-05-14T14:16:44.848Z,38.60
2018-05-14T14:19:13.773Z,38.50
2018-05-14T14:21:42.207Z,38.40
2018-05-14T14:24:09.943Z,38.10
2018-05-14T14:26:37.563Z,38.40
2018-05-14T14:29:05.253Z,38.50
2018-05-14T14:31:33.088Z,38.70
2018-05-14T14:34:00.688Z,39.30
2018-05-14T14:36:28.368Z,40.20
2018-05-14T14:38:56.019Z,40.70
2018-05-14T14:41:24.588Z,41.50
2018-05-14T14:43:52.944Z,42.00
2018-05-14T14:46:20.659Z,41.90
2018-05-14T14:48:48.225Z,42.50
2018-05-14T14:51:15.842Z,42.70
2018-05-14T14:53:44.256Z,41.60
2018-05-14T14:56:12.540Z,41.50
2018-05-14T14:58:40.228Z,40.30
2018-05-14T15:01:07.861Z,38.70
2018-05-14T15:03:35.486Z,38.40
2018-05-14T15:06:03.076Z,37.50
2018-05-14T15:08:30.704Z,37.40
2018-05-14T15:10:59.092Z,37.80
2018-05-14T15:13:26.726Z,37.80
2018-05-14T15:15:54.475Z,37.90
2018-05-14T15:18:22.062Z,37.30
2018-05-14T15:20:50.656Z,37.00
2018-05-14T15:23:19.086Z,36.40
2018-05-14T15:25:46.726Z,36.40
2018-05-14T15:28:14.352Z,36.60
2018-05-14T15:30:42.277Z,37.30
2018-05-14T15:33:10.058Z,37.60
2018-05-14T15:35:37.651Z,37.10
2018-05-14T15:38:06.030Z,37.40
2018-05-14T15:40:34.378Z,38.60
2018-05-14T15:43:02.003Z,38.60
2018-05-14T15:45:29.839Z,37.90
2018-05-14T15:47:58.220Z,37.20
2018-05-14T15:50:25.841Z,37.10
2018-05-14T15:52:54.319Z,38.30
2018-05-14T15:55:22.721Z,38.40
2018-05-14T15:57:50.872Z,38.30
2018-05-14T16:00:18.460Z,39.20
2018-05-14T16:02:46.848Z,39.70
2018-05-14T16:05:15.290Z,39.90
2018-05-14T16:07:42.875Z,39.80
2018-05-14T16:10:10.526Z,40.20
2018-05-14T16:12:38.176Z,40.00
2018-05-14T16:15:07.271Z,39.10
2018-05-14T16:17:34.848Z,39.10
2018-05-14T16:20:03.955Z,38.30
2018-05-14T16:22:32.304Z,37.30
2018-05-14T16:24:59.924Z,37.30
2018-05-14T16:27:27.597Z,35.00
2018-05-14T16:29:55.484Z,33.30
2018-05-14T16:32:23.154Z,32.10
2018-05-14T16:34:50.911Z,30.60
2018-05-14T16:37:18.495Z,29.60
2018-05-14T16:39:46.886Z,28.50
2018-05-14T16:42:15.265Z,28.20
2018-05-14T16:44:43.653Z,27.80
2018-05-14T16:47:11.473Z,27.80
2018-05-14T16:49:39.057Z,27.40
2018-05-14T16:52:07.486Z,26.70
2018-05-14T16:54:35.125Z,26.60
2018-05-14T16:57:02.728Z,26.50
2018-05-14T16:59:30.313Z,26.10
2018-05-14T17:01:57.960Z,25.70
2018-05-14T17:04:25.916Z,25.40
2018-05-14T17:06:53.533Z,25.40
2018-05-14T17:09:21.118Z,25.30
2018-05-14T17:11:48.761Z,25.10
2018-05-14T17:14:16.372Z,24.90
2018-05-14T17:16:43.975Z,24.70
2018-05-14T17:19:11.597Z,24.40
2018-05-14T17:21:39.244Z,24.30
2018-05-14T17:24:06.864Z,24.30
2018-05-14T17:26:34.607Z,24.10
2018-05-14T17:29:02.205Z,24.10
2018-05-14T17:31:29.903Z,24.00
2018-05-14T17:33:58.296Z,23.80
2018-05-14T17:36:26.684Z,23.70
2018-05-14T17:38:54.371Z,23.70
2018-05-14T17:41:23.694Z,23.50
2018-05-14T17:43:52.547Z,23.30
2018-05-14T17:46:20.335Z,23.20
2018-05-14T17:48:48.550Z,23.10
2018-05-14T17:51:16.964Z,23.10
2018-05-14T17:53:44.547Z,23.10
2018-05-14T17:56:12.163Z,23.10
2018-05-14T17:58:40.565Z,22.80
2018-05-14T18:01:08.152Z,22.80
2018-05-14T18:03:35.782Z,22.80
2018-05-14T18:06:03.501Z,22.70
2018-05-14T18:08:31.613Z,22.60
2018-05-14T18:10:59.349Z,22.60
2018-05-14T18:13:26.944Z,22.50
2018-05-14T18:15:55.290Z,22.40
2018-05-14T18:18:23.896Z,22.20
2018-05-14T18:20:51.559Z,22.20
2018-05-14T18:23:23.160Z,22.10
2018-05-14T18:29:06.306Z,21.90
2018-05-14T18:31:48.858Z,21.90
2018-05-14T18:34:16.449Z,21.80
2018-05-14T18:36:44.055Z,21.70
2018-05-14T18:39:12.639Z,21.50
2018-05-14T18:41:40.997Z,21.50
2018-05-14T18:44:14.583Z,21.40
2018-05-14T18:46:42.215Z,21.30
2018-05-14T18:49:09.795Z,21.20
2018-05-14T18:51:37.372Z,21.20
2018-05-14T18:54:05.022Z,21.10
2018-05-14T18:56:32.645Z,21.00
2018-05-14T18:59:00.289Z,20.90
2018-05-14T19:01:28.810Z,20.80
2018-05-14T19:03:57.114Z,20.70
2018-05-14T19:06:25.612Z,20.60
2018-05-14T19:08:53.279Z,20.60
2018-05-14T19:11:29.768Z,20.40
2018-05-14T19:14:00.620Z,20.40
2018-05-14T19:16:34.241Z,20.30
2018-05-14T19:19:03.261Z,20.30
2018-05-14T19:21:32.577Z,20.30
2018-05-14T19:24:01.325Z,20.20
2018-05-14T19:26:29.844Z,20.10
2018-05-14T19:29:03.375Z,20.10
2018-05-14T19:31:31.191Z,20.10
2018-05-14T19:34:04.517Z,20.00
2018-05-14T19:36:32.134Z,20.00
2018-05-14T19:38:59.773Z,19.90
2018-05-14T19:41:27.567Z,19.80
2018-05-14T19:43:56.232Z,19.80
2018-05-14T19:46:24.824Z,19.80
2018-05-14T19:48:52.540Z,19.70
2018-05-14T19:51:20.372Z,19.70
2018-05-14T19:53:51.881Z,19.60
2018-05-14T19:56:19.489Z,19.60
2018-05-14T19:58:47.957Z,19.50
2018-05-14T20:01:16.980Z,19.40
2018-05-14T20:03:44.674Z,19.40
2018-05-14T20:06:12.512Z,19.40
2018-05-14T20:08:40.208Z,19.40
2018-05-14T20:11:07.813Z,19.40
2018-05-14T20:13:36.226Z,19.30
2018-05-14T20:16:03.860Z,19.30
2018-05-14T20:18:32.212Z,19.20
2018-05-14T20:20:59.837Z,19.20
2018-05-14T20:23:27.483Z,19.20
2018-05-14T20:25:55.124Z,19.10
2018-05-14T20:28:23.472Z,19.10
2018-05-14T20:30:51.136Z,19.00
2018-05-14T20:33:18.783Z,19.00
2018-05-14T20:35:46.391Z,19.00
2018-05-14T20:38:14.081Z,18.90
2018-05-14T20:40:41.696Z,18.90
2018-05-14T20:43:10.053Z,18.90
2018-05-14T20:45:37.714Z,18.90
2018-05-14T20:48:05.337Z,18.80
2018-05-14T20:50:32.929Z,18.80
2018-05-14T20:53:00.640Z,18.80
2018-05-14T20:55:28.327Z,18.80
2018-05-14T20:57:55.948Z,18.80
2018-05-14T21:00:24.345Z,18.70
2018-05-14T21:02:51.993Z,18.70
2018-05-14T21:05:19.583Z,18.70
2018-05-14T21:07:53.708Z,18.60
2018-05-14T21:10:21.358Z,18.60
2018-05-14T21:12:48.970Z,18.50
2018-05-14T21:15:17.403Z,18.50
2018-05-14T21:17:45.069Z,18.40
2018-05-14T21:20:12.745Z,18.40
2018-05-14T21:25:31.887Z,18.40
2018-05-14T21:27:59.523Z,18.30
2018-05-14T21:30:27.152Z,18.30
2018-05-14T21:32:55.565Z,18.20
2018-05-14T21:35:23.217Z,18.20
2018-05-14T21:37:50.869Z,18.20
2018-05-14T21:40:19.280Z,18.10
2018-05-14T21:42:46.940Z,18.00
2018-05-14T21:45:14.641Z,18.00
2018-05-14T21:47:42.271Z,18.00
2018-05-14T21:50:10.045Z,18.00
2018-05-14T21:52:37.677Z,18.00
2018-05-14T21:55:05.263Z,17.90
2018-05-14T21:57:32.881Z,17.90
2018-05-14T22:00:01.316Z,17.80
2018-05-14T22:02:28.967Z,17.80
2018-05-14T22:04:56.580Z,17.70
2018-05-14T22:07:25.013Z,17.70
2018-05-14T22:09:52.594Z,17.70
2018-05-14T22:12:21.001Z,17.60
2018-05-14T22:14:49.419Z,17.60
2018-05-14T22:17:17.064Z,17.50
2018-05-14T22:19:44.653Z,17.50
2018-05-14T22:22:12.273Z,17.40
2018-05-14T22:24:39.929Z,17.40
2018-05-14T22:27:07.524Z,17.40
2018-05-14T22:29:35.193Z,17.30
2018-05-14T22:32:03.643Z,17.30
2018-05-14T22:34:31.256Z,17.20
2018-05-14T22:36:58.870Z,17.20
2018-05-14T22:39:26.518Z,17.20
2018-05-14T22:41:54.111Z,17.20
2018-05-14T22:44:22.366Z,17.10
2018-05-14T22:46:49.986Z,17.10
2018-05-14T22:49:18.408Z,17.00
2018-05-14T22:51:46.023Z,17.00
2018-05-14T22:54:26.526Z,17.00
2018-05-14T22:56:54.137Z,17.00
2018-05-14T22:59:21.736Z,17.00
2018-05-14T23:01:49.442Z,17.00
2018-05-14T23:04:17.048Z,16.90
2018-05-14T23:06:44.631Z,16.90
2018-05-14T23:09:12.300Z,16.90
2018-05-14T23:11:39.929Z,16.80
2018-05-14T23:14:07.645Z,16.80
2018-05-14T23:16:35.309Z,16.80
2018-05-14T23:19:02.948Z,16.80
2018-05-14T23:21:30.620Z,16.80
2018-05-14T23:23:58.269Z,16.80
2018-05-14T23:26:25.859Z,16.70
2018-05-14T23:28:53.496Z,16.70
2018-05-14T23:31:21.097Z,16.70
2018-05-14T23:33:49.494Z,16.60
2018-05-14T23:36:17.090Z,16.60
2018-05-14T23:38:44.748Z,16.60
2018-05-14T23:41:12.332Z,16.60
2018-05-14T23:43:39.936Z,16.50
2018-05-14T23:46:07.547Z,16.50
2018-05-14T23:48:36.061Z,16.50
2018-05-14T23:51:04.464Z,16.40
2018-05-14T23:53:32.066Z,16.40
2018-05-14T23:55:59.683Z,16.40
2018-05-14T23:58:27.342Z,16.40
